sensor_id;sensor_type;location;lat;lon;timestamp;pressure;altitude;pressure_sealevel;temperature;humidity
62057;BME280;48016;50.284;18.860;2023-01-20T00:01:31;97498.77;;;0.30;85.62
62057;BME280;48016;50.284;18.860;2023-01-20T00:04:00;97495.91;;;0.31;85.70
62057;BME280;48016;50.284;18.860;2023-01-20T00:06:29;97493.16;;;0.34;85.85
62057;BME280;48016;50.284;18.860;2023-01-20T00:08:59;97486.73;;;0.34;85.65
62057;BME280;48016;50.284;18.860;2023-01-20T00:11:28;97479.38;;;0.36;85.74
62057;BME280;48016;50.284;18.860;2023-01-20T00:14:00;97478.52;;;0.36;85.41
62057;BME280;48016;50.284;18.860;2023-01-20T00:16:29;97477.22;;;0.35;85.53
62057;BME280;48016;50.284;18.860;2023-01-20T00:19:00;97475.54;;;0.33;85.29
62057;BME280;48016;50.284;18.860;2023-01-20T00:21:27;97472.52;;;0.30;85.23
62057;BME280;48016;50.284;18.860;2023-01-20T00:23:55;97473.44;;;0.28;85.37
62057;BME280;48016;50.284;18.860;2023-01-20T00:26:23;97478.36;;;0.24;85.11
62057;BME280;48016;50.284;18.860;2023-01-20T00:28:54;97489.45;;;0.20;84.77
62057;BME280;48016;50.284;18.860;2023-01-20T00:31:26;97495.35;;;0.14;84.93
62057;BME280;48016;50.284;18.860;2023-01-20T00:33:56;97494.70;;;0.10;85.14
62057;BME280;48016;50.284;18.860;2023-01-20T00:36:26;97490.42;;;0.08;85.34
62057;BME280;48016;50.284;18.860;2023-01-20T00:38:54;97488.99;;;0.06;85.14
62057;BME280;48016;50.284;18.860;2023-01-20T00:41:21;97488.17;;;0.03;84.94
62057;BME280;48016;50.284;18.860;2023-01-20T00:43:49;97484.30;;;-0.04;84.88
62057;BME280;48016;50.284;18.860;2023-01-20T00:46:17;97489.02;;;-0.10;85.04
62057;BME280;48016;50.284;18.860;2023-01-20T00:48:44;97490.32;;;-0.14;84.69
62057;BME280;48016;50.284;18.860;2023-01-20T00:51:12;97489.52;;;-0.20;84.71
62057;BME280;48016;50.284;18.860;2023-01-20T00:53:39;97493.57;;;-0.27;84.52
62057;BME280;48016;50.284;18.860;2023-01-20T00:56:07;97503.63;;;-0.33;84.49
62057;BME280;48016;50.284;18.860;2023-01-20T00:58:37;97505.75;;;-0.39;84.62
62057;BME280;48016;50.284;18.860;2023-01-20T01:01:04;97502.68;;;-0.47;84.43
62057;BME280;48016;50.284;18.860;2023-01-20T01:03:31;97498.43;;;-0.54;84.50
62057;BME280;48016;50.284;18.860;2023-01-20T01:06:13;97490.52;;;-0.61;84.39
62057;BME280;48016;50.284;18.860;2023-01-20T01:08:42;97493.42;;;-0.67;84.39
62057;BME280;48016;50.284;18.860;2023-01-20T01:11:10;97498.88;;;-0.71;84.51
62057;BME280;48016;50.284;18.860;2023-01-20T01:13:38;97508.45;;;-0.73;84.55
62057;BME280;48016;50.284;18.860;2023-01-20T01:16:14;97518.48;;;-0.81;84.34
62057;BME280;48016;50.284;18.860;2023-01-20T01:18:42;97527.09;;;-0.91;84.47
62057;BME280;48016;50.284;18.860;2023-01-20T01:21:12;97537.48;;;-0.97;84.60
62057;BME280;48016;50.284;18.860;2023-01-20T01:23:41;97541.92;;;-1.01;84.50
62057;BME280;48016;50.284;18.860;2023-01-20T01:26:09;97542.11;;;-1.05;84.57
62057;BME280;48016;50.284;18.860;2023-01-20T01:28:36;97540.55;;;-1.09;84.37
62057;BME280;48016;50.284;18.860;2023-01-20T01:31:06;97546.28;;;-1.14;84.28
62057;BME280;48016;50.284;18.860;2023-01-20T01:33:34;97549.16;;;-1.20;84.07
62057;BME280;48016;50.284;18.860;2023-01-20T01:36:03;97563.84;;;-1.25;84.16
62057;BME280;48016;50.284;18.860;2023-01-20T01:38:31;97569.85;;;-1.28;84.23
62057;BME280;48016;50.284;18.860;2023-01-20T01:40:58;97578.03;;;-1.31;84.33
62057;BME280;48016;50.284;18.860;2023-01-20T01:43:31;97579.52;;;-1.36;84.29
62057;BME280;48016;50.284;18.860;2023-01-20T01:46:00;97587.39;;;-1.38;84.50
62057;BME280;48016;50.284;18.860;2023-01-20T01:48:42;97593.45;;;-1.43;84.39
62057;BME280;48016;50.284;18.860;2023-01-20T01:51:11;97581.55;;;-1.48;84.37
62057;BME280;48016;50.284;18.860;2023-01-20T01:53:43;97568.39;;;-1.52;84.42
62057;BME280;48016;50.284;18.860;2023-01-20T01:56:14;97561.73;;;-1.61;84.29
62057;BME280;48016;50.284;18.860;2023-01-20T01:58:45;97558.09;;;-1.70;84.47
62057;BME280;48016;50.284;18.860;2023-01-20T02:01:14;97544.52;;;-1.78;84.42
62057;BME280;48016;50.284;18.860;2023-01-20T02:04:10;97546.98;;;-1.87;84.49
62057;BME280;48016;50.284;18.860;2023-01-20T02:06:40;97555.06;;;-1.92;84.51
62057;BME280;48016;50.284;18.860;2023-01-20T02:09:08;97564.30;;;-1.94;84.58
62057;BME280;48016;50.284;18.860;2023-01-20T02:11:45;97572.91;;;-1.94;84.73
62057;BME280;48016;50.284;18.860;2023-01-20T02:14:17;97572.49;;;-1.92;84.90
62057;BME280;48016;50.284;18.860;2023-01-20T02:23:32;97559.69;;;-1.95;84.84
62057;BME280;48016;50.284;18.860;2023-01-20T02:40:33;97573.65;;;-2.13;85.13
62057;BME280;48016;50.284;18.860;2023-01-20T02:43:22;97562.08;;;-2.12;85.44
62057;BME280;48016;50.284;18.860;2023-01-20T02:51:13;97564.80;;;-2.08;85.30
62057;BME280;48016;50.284;18.860;2023-01-20T02:54:04;97561.16;;;-2.10;85.30
62057;BME280;48016;50.284;18.860;2023-01-20T02:56:34;97545.60;;;-2.15;85.05
62057;BME280;48016;50.284;18.860;2023-01-20T02:59:06;97533.73;;;-2.22;85.12
62057;BME280;48016;50.284;18.860;2023-01-20T03:01:48;97532.86;;;-2.23;85.25
62057;BME280;48016;50.284;18.860;2023-01-20T03:04:18;97529.38;;;-2.22;85.32
62057;BME280;48016;50.284;18.860;2023-01-20T03:06:53;97528.33;;;-2.21;85.56
62057;BME280;48016;50.284;18.860;2023-01-20T03:09:25;97538.69;;;-2.18;85.67
62057;BME280;48016;50.284;18.860;2023-01-20T03:12:14;97544.96;;;-2.13;85.94
62057;BME280;48016;50.284;18.860;2023-01-20T03:14:43;97558.05;;;-2.13;85.66
62057;BME280;48016;50.284;18.860;2023-01-20T03:17:11;97560.31;;;-2.16;85.88
62057;BME280;48016;50.284;18.860;2023-01-20T03:19:39;97561.98;;;-2.19;85.80
62057;BME280;48016;50.284;18.860;2023-01-20T03:22:06;97563.27;;;-2.22;85.73
62057;BME280;48016;50.284;18.860;2023-01-20T03:24:36;97572.50;;;-2.24;85.91
62057;BME280;48016;50.284;18.860;2023-01-20T03:27:04;97572.95;;;-2.23;85.98
62057;BME280;48016;50.284;18.860;2023-01-20T03:29:32;97571.09;;;-2.22;85.93
62057;BME280;48016;50.284;18.860;2023-01-20T03:32:01;97563.78;;;-2.19;85.93
62057;BME280;48016;50.284;18.860;2023-01-20T03:34:33;97565.77;;;-2.16;86.01
62057;BME280;48016;50.284;18.860;2023-01-20T03:37:03;97580.11;;;-2.10;85.92
62057;BME280;48016;50.284;18.860;2023-01-20T03:39:30;97598.07;;;-2.07;85.90
62057;BME280;48016;50.284;18.860;2023-01-20T03:45:16;97605.23;;;-1.99;86.35
62057;BME280;48016;50.284;18.860;2023-01-20T03:53:45;97620.35;;;-1.88;86.27
62057;BME280;48016;50.284;18.860;2023-01-20T03:57:10;97613.54;;;-1.92;86.21
62057;BME280;48016;50.284;18.860;2023-01-20T03:59:34;97609.34;;;-1.97;86.32
62057;BME280;48016;50.284;18.860;2023-01-20T04:02:06;97618.02;;;-1.97;86.47
62057;BME280;48016;50.284;18.860;2023-01-20T04:04:53;97619.96;;;-1.96;86.26
62057;BME280;48016;50.284;18.860;2023-01-20T04:07:22;97619.31;;;-1.96;86.03
62057;BME280;48016;50.284;18.860;2023-01-20T04:09:54;97614.16;;;-1.96;86.08
62057;BME280;48016;50.284;18.860;2023-01-20T04:12:24;97617.34;;;-1.97;85.90
62057;BME280;48016;50.284;18.860;2023-01-20T04:14:51;97623.67;;;-2.00;86.15
62057;BME280;48016;50.284;18.860;2023-01-20T04:17:19;97627.90;;;-2.01;86.12
62057;BME280;48016;50.284;18.860;2023-01-20T04:19:47;97626.65;;;-2.10;85.96
62057;BME280;48016;50.284;18.860;2023-01-20T04:22:23;97632.09;;;-2.15;86.11
62057;BME280;48016;50.284;18.860;2023-01-20T04:25:00;97637.46;;;-2.17;86.20
62057;BME280;48016;50.284;18.860;2023-01-20T04:27:29;97643.88;;;-2.19;86.10
62057;BME280;48016;50.284;18.860;2023-01-20T04:29:56;97647.28;;;-2.21;86.17
62057;BME280;48016;50.284;18.860;2023-01-20T04:32:24;97652.13;;;-2.21;86.12
62057;BME280;48016;50.284;18.860;2023-01-20T04:34:52;97652.23;;;-2.23;85.82
62057;BME280;48016;50.284;18.860;2023-01-20T04:37:19;97655.31;;;-2.26;85.80
62057;BME280;48016;50.284;18.860;2023-01-20T04:39:48;97660.05;;;-2.25;85.90
62057;BME280;48016;50.284;18.860;2023-01-20T04:42:15;97660.95;;;-2.24;85.97
62057;BME280;48016;50.284;18.860;2023-01-20T04:44:44;97659.38;;;-2.21;85.99
62057;BME280;48016;50.284;18.860;2023-01-20T04:47:11;97658.48;;;-2.21;85.96
62057;BME280;48016;50.284;18.860;2023-01-20T04:49:38;97655.89;;;-2.25;85.93
62057;BME280;48016;50.284;18.860;2023-01-20T04:52:05;97656.38;;;-2.29;85.87
62057;BME280;48016;50.284;18.860;2023-01-20T04:54:32;97651.91;;;-2.36;85.94
62057;BME280;48016;50.284;18.860;2023-01-20T04:57:00;97644.10;;;-2.39;86.02
62057;BME280;48016;50.284;18.860;2023-01-20T04:59:28;97647.08;;;-2.42;85.98
62057;BME280;48016;50.284;18.860;2023-01-20T05:01:55;97646.80;;;-2.49;85.81
62057;BME280;48016;50.284;18.860;2023-01-20T05:04:23;97654.81;;;-2.54;86.01
62057;BME280;48016;50.284;18.860;2023-01-20T05:06:50;97662.35;;;-2.57;85.88
62057;BME280;48016;50.284;18.860;2023-01-20T05:09:18;97672.67;;;-2.58;85.81
62057;BME280;48016;50.284;18.860;2023-01-20T05:11:45;97674.90;;;-2.56;85.90
62057;BME280;48016;50.284;18.860;2023-01-20T05:14:12;97675.41;;;-2.55;85.95
62057;BME280;48016;50.284;18.860;2023-01-20T05:16:39;97680.04;;;-2.56;85.99
62057;BME280;48016;50.284;18.860;2023-01-20T05:19:06;97685.66;;;-2.59;85.95
62057;BME280;48016;50.284;18.860;2023-01-20T05:21:33;97691.70;;;-2.62;86.10
62057;BME280;48016;50.284;18.860;2023-01-20T05:24:00;97694.36;;;-2.64;86.18
62057;BME280;48016;50.284;18.860;2023-01-20T05:26:29;97690.84;;;-2.65;86.06
62057;BME280;48016;50.284;18.860;2023-01-20T05:28:56;97691.29;;;-2.69;85.90
62057;BME280;48016;50.284;18.860;2023-01-20T05:31:23;97690.60;;;-2.75;85.41
62057;BME280;48016;50.284;18.860;2023-01-20T05:33:50;97692.52;;;-2.81;85.45
62057;BME280;48016;50.284;18.860;2023-01-20T05:36:18;97696.14;;;-2.85;85.30
62057;BME280;48016;50.284;18.860;2023-01-20T05:38:45;97699.23;;;-2.85;85.36
62057;BME280;48016;50.284;18.860;2023-01-20T05:41:14;97701.63;;;-2.85;85.33
62057;BME280;48016;50.284;18.860;2023-01-20T05:43:41;97695.08;;;-2.86;85.55
62057;BME280;48016;50.284;18.860;2023-01-20T05:46:08;97689.80;;;-2.87;85.72
62057;BME280;48016;50.284;18.860;2023-01-20T05:48:36;97684.41;;;-2.86;85.84
62057;BME280;48016;50.284;18.860;2023-01-20T05:51:03;97689.30;;;-2.85;85.86
62057;BME280;48016;50.284;18.860;2023-01-20T05:53:32;97692.23;;;-2.86;85.59
62057;BME280;48016;50.284;18.860;2023-01-20T05:56:01;97699.30;;;-2.90;85.32
62057;BME280;48016;50.284;18.860;2023-01-20T05:58:30;97700.73;;;-2.95;85.36
62057;BME280;48016;50.284;18.860;2023-01-20T06:01:06;97702.38;;;-3.00;85.13
62057;BME280;48016;50.284;18.860;2023-01-20T06:03:33;97700.78;;;-3.10;84.78
62057;BME280;48016;50.284;18.860;2023-01-20T06:06:05;97705.12;;;-3.17;84.92
62057;BME280;48016;50.284;18.860;2023-01-20T06:08:34;97702.63;;;-3.20;84.99
62057;BME280;48016;50.284;18.860;2023-01-20T06:11:03;97704.35;;;-3.20;85.19
62057;BME280;48016;50.284;18.860;2023-01-20T06:13:32;97708.42;;;-3.20;85.29
62057;BME280;48016;50.284;18.860;2023-01-20T06:16:01;97713.58;;;-3.20;85.42
62057;BME280;48016;50.284;18.860;2023-01-20T06:18:29;97716.02;;;-3.20;85.33
62057;BME280;48016;50.284;18.860;2023-01-20T06:20:58;97720.82;;;-3.20;85.21
62057;BME280;48016;50.284;18.860;2023-01-20T06:23:27;97727.80;;;-3.21;85.18
62057;BME280;48016;50.284;18.860;2023-01-20T06:26:07;97731.13;;;-3.22;85.23
62057;BME280;48016;50.284;18.860;2023-01-20T06:28:35;97735.71;;;-3.22;85.51
62057;BME280;48016;50.284;18.860;2023-01-20T06:31:14;97735.58;;;-3.23;85.25
62057;BME280;48016;50.284;18.860;2023-01-20T06:33:42;97734.57;;;-3.20;85.15
62057;BME280;48016;50.284;18.860;2023-01-20T06:36:10;97737.44;;;-3.12;85.30
62057;BME280;48016;50.284;18.860;2023-01-20T06:38:40;97735.95;;;-3.08;85.32
62057;BME280;48016;50.284;18.860;2023-01-20T06:41:09;97740.32;;;-3.01;85.70
62057;BME280;48016;50.284;18.860;2023-01-20T06:43:38;97746.02;;;-2.95;85.77
62057;BME280;48016;50.284;18.860;2023-01-20T06:46:11;97745.34;;;-2.89;86.00
62057;BME280;48016;50.284;18.860;2023-01-20T06:48:40;97751.98;;;-2.84;85.87
62057;BME280;48016;50.284;18.860;2023-01-20T06:51:14;97754.69;;;-2.80;85.89
62057;BME280;48016;50.284;18.860;2023-01-20T06:53:42;97759.14;;;-2.76;86.02
62057;BME280;48016;50.284;18.860;2023-01-20T06:56:12;97757.62;;;-2.72;86.02
62057;BME280;48016;50.284;18.860;2023-01-20T06:58:40;97747.58;;;-2.70;85.88
62057;BME280;48016;50.284;18.860;2023-01-20T07:01:14;97752.16;;;-2.67;85.78
62057;BME280;48016;50.284;18.860;2023-01-20T07:03:42;97756.60;;;-2.63;85.69
62057;BME280;48016;50.284;18.860;2023-01-20T07:06:23;97761.59;;;-2.64;85.49
62057;BME280;48016;50.284;18.860;2023-01-20T07:08:52;97775.27;;;-2.63;85.65
62057;BME280;48016;50.284;18.860;2023-01-20T07:11:21;97784.30;;;-2.58;86.04
62057;BME280;48016;50.284;18.860;2023-01-20T07:13:49;97787.87;;;-2.55;86.16
62057;BME280;48016;50.284;18.860;2023-01-20T07:16:16;97790.73;;;-2.51;86.29
62057;BME280;48016;50.284;18.860;2023-01-20T07:18:49;97788.33;;;-2.45;86.22
62057;BME280;48016;50.284;18.860;2023-01-20T07:21:18;97785.39;;;-2.43;86.07
62057;BME280;48016;50.284;18.860;2023-01-20T07:23:46;97785.67;;;-2.43;85.88
62057;BME280;48016;50.284;18.860;2023-01-20T07:26:16;97787.71;;;-2.45;85.83
62057;BME280;48016;50.284;18.860;2023-01-20T07:28:44;97785.38;;;-2.46;85.82
62057;BME280;48016;50.284;18.860;2023-01-20T07:31:21;97784.52;;;-2.46;85.91
62057;BME280;48016;50.284;18.860;2023-01-20T07:33:49;97788.30;;;-2.50;85.79
62057;BME280;48016;50.284;18.860;2023-01-20T07:36:17;97792.89;;;-2.48;85.93
62057;BME280;48016;50.284;18.860;2023-01-20T07:38:48;97791.22;;;-2.48;86.08
62057;BME280;48016;50.284;18.860;2023-01-20T07:41:16;97795.10;;;-2.57;86.19
62057;BME280;48016;50.284;18.860;2023-01-20T07:43:46;97797.91;;;-2.56;86.36
62057;BME280;48016;50.284;18.860;2023-01-20T07:46:15;97801.73;;;-2.57;86.40
62057;BME280;48016;50.284;18.860;2023-01-20T07:48:44;97808.27;;;-2.59;86.22
62057;BME280;48016;50.284;18.860;2023-01-20T07:51:13;97802.48;;;-2.65;86.05
62057;BME280;48016;50.284;18.860;2023-01-20T07:53:43;97801.85;;;-2.78;85.80
62057;BME280;48016;50.284;18.860;2023-01-20T07:56:26;97801.83;;;-2.82;86.10
62057;BME280;48016;50.284;18.860;2023-01-20T07:58:55;97803.96;;;-2.79;85.94
62057;BME280;48016;50.284;18.860;2023-01-20T08:01:29;97812.34;;;-2.81;85.95
62057;BME280;48016;50.284;18.860;2023-01-20T08:03:57;97826.44;;;-2.81;85.88
62057;BME280;48016;50.284;18.860;2023-01-20T08:06:28;97832.77;;;-2.90;85.76
62057;BME280;48016;50.284;18.860;2023-01-20T08:08:59;97832.53;;;-2.98;85.76
62057;BME280;48016;50.284;18.860;2023-01-20T08:11:28;97833.39;;;-3.01;85.86
62057;BME280;48016;50.284;18.860;2023-01-20T08:13:56;97831.54;;;-3.05;85.67
62057;BME280;48016;50.284;18.860;2023-01-20T08:16:23;97837.86;;;-3.11;85.66
62057;BME280;48016;50.284;18.860;2023-01-20T08:18:53;97835.05;;;-3.14;85.57
62057;BME280;48016;50.284;18.860;2023-01-20T08:23:50;97827.66;;;-3.05;86.06
62057;BME280;48016;50.284;18.860;2023-01-20T08:26:19;97828.80;;;-2.95;86.21
62057;BME280;48016;50.284;18.860;2023-01-20T08:28:47;97836.23;;;-2.82;86.43
62057;BME280;48016;50.284;18.860;2023-01-20T08:31:17;97838.15;;;-2.76;86.19
62057;BME280;48016;50.284;18.860;2023-01-20T08:33:46;97840.27;;;-2.73;85.97
62057;BME280;48016;50.284;18.860;2023-01-20T08:36:18;97844.23;;;-2.69;86.07
62057;BME280;48016;50.284;18.860;2023-01-20T08:38:46;97846.80;;;-2.62;86.15
62057;BME280;48016;50.284;18.860;2023-01-20T08:41:18;97853.45;;;-2.60;86.06
62057;BME280;48016;50.284;18.860;2023-01-20T08:43:45;97853.21;;;-2.58;85.76
62057;BME280;48016;50.284;18.860;2023-01-20T08:46:20;97854.45;;;-2.58;85.94
62057;BME280;48016;50.284;18.860;2023-01-20T08:48:48;97853.82;;;-2.53;85.90
62057;BME280;48016;50.284;18.860;2023-01-20T08:51:29;97860.13;;;-2.48;86.01
62057;BME280;48016;50.284;18.860;2023-01-20T08:53:57;97861.64;;;-2.42;86.13
62057;BME280;48016;50.284;18.860;2023-01-20T08:56:25;97858.88;;;-2.35;86.19
62057;BME280;48016;50.284;18.860;2023-01-20T08:58:52;97862.39;;;-2.22;86.37
62057;BME280;48016;50.284;18.860;2023-01-20T09:01:23;97867.77;;;-2.15;86.20
62057;BME280;48016;50.284;18.860;2023-01-20T09:03:51;97869.02;;;-2.10;86.01
62057;BME280;48016;50.284;18.860;2023-01-20T09:06:19;97866.08;;;-2.04;86.22
62057;BME280;48016;50.284;18.860;2023-01-20T09:08:48;97867.33;;;-1.91;86.18
62057;BME280;48016;50.284;18.860;2023-01-20T09:11:21;97872.94;;;-1.82;85.94
62057;BME280;48016;50.284;18.860;2023-01-20T09:13:48;97875.79;;;-1.72;85.91
62057;BME280;48016;50.284;18.860;2023-01-20T09:16:17;97874.14;;;-1.61;85.67
62057;BME280;48016;50.284;18.860;2023-01-20T09:18:46;97879.06;;;-1.52;85.51
62057;BME280;48016;50.284;18.860;2023-01-20T09:21:14;97884.38;;;-1.42;85.57
62057;BME280;48016;50.284;18.860;2023-01-20T09:23:42;97882.63;;;-1.35;85.52
62057;BME280;48016;50.284;18.860;2023-01-20T09:26:09;97881.53;;;-1.25;85.47
62057;BME280;48016;50.284;18.860;2023-01-20T09:28:37;97876.42;;;-1.21;84.88
62057;BME280;48016;50.284;18.860;2023-01-20T09:31:07;97876.75;;;-1.16;85.04
62057;BME280;48016;50.284;18.860;2023-01-20T09:33:37;97875.69;;;-1.08;84.76
62057;BME280;48016;50.284;18.860;2023-01-20T09:36:07;97872.24;;;-1.08;84.39
62057;BME280;48016;50.284;18.860;2023-01-20T09:38:35;97872.27;;;-1.07;84.22
62057;BME280;48016;50.284;18.860;2023-01-20T09:41:35;97867.23;;;-1.04;84.18
62057;BME280;48016;50.284;18.860;2023-01-20T09:47:09;97864.97;;;-0.99;84.26
62057;BME280;48016;50.284;18.860;2023-01-20T09:53:32;97862.98;;;-0.82;84.21
62057;BME280;48016;50.284;18.860;2023-01-20T09:56:13;97862.16;;;-0.77;84.48
62057;BME280;48016;50.284;18.860;2023-01-20T09:59:08;97863.17;;;-0.74;84.17
62057;BME280;48016;50.284;18.860;2023-01-20T10:01:45;97860.85;;;-0.78;83.87
62057;BME280;48016;50.284;18.860;2023-01-20T10:04:38;97858.27;;;-0.80;83.86
62057;BME280;48016;50.284;18.860;2023-01-20T10:15:08;97851.02;;;-0.69;83.48
62057;BME280;48016;50.284;18.860;2023-01-20T10:25:28;97846.90;;;-0.46;83.91
62057;BME280;48016;50.284;18.860;2023-01-20T10:28:27;97844.30;;;-0.35;83.90
62057;BME280;48016;50.284;18.860;2023-01-20T10:30:59;97844.65;;;-0.27;83.47
62057;BME280;48016;50.284;18.860;2023-01-20T10:33:40;97848.95;;;-0.21;83.38
62057;BME280;48016;50.284;18.860;2023-01-20T10:36:33;97851.21;;;-0.16;83.10
62057;BME280;48016;50.284;18.860;2023-01-20T10:39:04;97848.40;;;-0.11;82.79
62057;BME280;48016;50.284;18.860;2023-01-20T10:44:12;97860.54;;;0.01;82.29
62057;BME280;48016;50.284;18.860;2023-01-20T10:55:16;97858.04;;;-0.07;82.49
62057;BME280;48016;50.284;18.860;2023-01-20T10:57:50;97859.06;;;-0.09;82.30
62057;BME280;48016;50.284;18.860;2023-01-20T11:00:26;97868.15;;;-0.05;82.74
62057;BME280;48016;50.284;18.860;2023-01-20T11:02:59;97869.36;;;0.01;82.49
62057;BME280;48016;50.284;18.860;2023-01-20T11:05:34;97869.05;;;0.06;81.98
62057;BME280;48016;50.284;18.860;2023-01-20T11:08:17;97865.43;;;0.09;81.69
62057;BME280;48016;50.284;18.860;2023-01-20T11:10:51;97866.68;;;0.07;81.34
62057;BME280;48016;50.284;18.860;2023-01-20T11:13:21;97860.91;;;0.05;81.39
62057;BME280;48016;50.284;18.860;2023-01-20T11:15:58;97857.73;;;-0.02;80.93
62057;BME280;48016;50.284;18.860;2023-01-20T11:18:31;97853.88;;;0.02;81.46
62057;BME280;48016;50.284;18.860;2023-01-20T11:29:00;97837.84;;;0.26;80.36
62057;BME280;48016;50.284;18.860;2023-01-20T11:31:37;97832.02;;;0.25;80.55
62057;BME280;48016;50.284;18.860;2023-01-20T11:34:32;97832.73;;;0.27;80.35
62057;BME280;48016;50.284;18.860;2023-01-20T11:39:32;97822.96;;;0.32;80.28
62057;BME280;48016;50.284;18.860;2023-01-20T11:44:50;97828.12;;;0.50;80.24
62057;BME280;48016;50.284;18.860;2023-01-20T11:47:28;97827.48;;;0.42;79.26
62057;BME280;48016;50.284;18.860;2023-01-20T11:50:23;97823.29;;;0.34;79.23
62057;BME280;48016;50.284;18.860;2023-01-20T11:53:12;97809.79;;;0.28;79.28
62057;BME280;48016;50.284;18.860;2023-01-20T11:55:56;97804.98;;;0.26;79.73
62057;BME280;48016;50.284;18.860;2023-01-20T11:58:31;97802.89;;;0.24;79.62
62057;BME280;48016;50.284;18.860;2023-01-20T12:01:23;97803.84;;;0.26;79.82
62057;BME280;48016;50.284;18.860;2023-01-20T12:07:31;97804.76;;;0.15;78.57
62057;BME280;48016;50.284;18.860;2023-01-20T12:10:03;97803.76;;;0.07;78.95
62057;BME280;48016;50.284;18.860;2023-01-20T12:12:46;97799.17;;;0.07;78.66
62057;BME280;48016;50.284;18.860;2023-01-20T12:15:25;97796.91;;;0.02;78.79
62057;BME280;48016;50.284;18.860;2023-01-20T12:18:18;97793.37;;;-0.05;78.98
62057;BME280;48016;50.284;18.860;2023-01-20T12:20:54;97790.59;;;-0.08;79.33
62057;BME280;48016;50.284;18.860;2023-01-20T12:23:58;97791.42;;;-0.04;79.46
62057;BME280;48016;50.284;18.860;2023-01-20T12:26:26;97795.33;;;0.04;79.27
62057;BME280;48016;50.284;18.860;2023-01-20T12:29:01;97796.58;;;-0.01;78.63
62057;BME280;48016;50.284;18.860;2023-01-20T12:31:32;97794.06;;;-0.07;78.68
62057;BME280;48016;50.284;18.860;2023-01-20T12:36:43;97794.58;;;-0.21;78.56
62057;BME280;48016;50.284;18.860;2023-01-20T12:39:27;97801.16;;;-0.31;78.46
62057;BME280;48016;50.284;18.860;2023-01-20T12:53:49;97825.77;;;-0.52;79.25
62057;BME280;48016;50.284;18.860;2023-01-20T12:56:24;97824.23;;;-0.57;79.19
62057;BME280;48016;50.284;18.860;2023-01-20T13:07:40;97835.20;;;-0.51;80.18
62057;BME280;48016;50.284;18.860;2023-01-20T13:10:23;97831.77;;;-0.41;80.18
62057;BME280;48016;50.284;18.860;2023-01-20T13:15:38;97834.69;;;-0.35;80.10
62057;BME280;48016;50.284;18.860;2023-01-20T13:21:01;97848.04;;;-0.37;79.87
62057;BME280;48016;50.284;18.860;2023-01-20T13:23:32;97852.45;;;-0.44;79.88
62057;BME280;48016;50.284;18.860;2023-01-20T13:26:03;97859.45;;;-0.49;80.22
62057;BME280;48016;50.284;18.860;2023-01-20T13:28:31;97862.59;;;-0.50;80.42
62057;BME280;48016;50.284;18.860;2023-01-20T13:31:01;97868.14;;;-0.52;80.57
62057;BME280;48016;50.284;18.860;2023-01-20T13:33:50;97868.98;;;-0.49;80.84
62057;BME280;48016;50.284;18.860;2023-01-20T13:38:46;97868.63;;;-0.46;81.06
62057;BME280;48016;50.284;18.860;2023-01-20T13:41:46;97863.95;;;-0.42;81.03
62057;BME280;48016;50.284;18.860;2023-01-20T13:44:34;97859.38;;;-0.34;81.16
62057;BME280;48016;50.284;18.860;2023-01-20T13:47:04;97863.69;;;-0.29;80.83
62057;BME280;48016;50.284;18.860;2023-01-20T13:49:47;97869.34;;;-0.29;80.71
62057;BME280;48016;50.284;18.860;2023-01-20T13:58:34;97883.25;;;-0.26;80.76
62057;BME280;48016;50.284;18.860;2023-01-20T14:01:05;97890.82;;;-0.26;81.07
62057;BME280;48016;50.284;18.860;2023-01-20T14:03:38;97891.13;;;-0.19;81.35
62057;BME280;48016;50.284;18.860;2023-01-20T14:06:19;97896.34;;;-0.15;81.23
62057;BME280;48016;50.284;18.860;2023-01-20T14:08:48;97897.97;;;-0.09;81.21
62057;BME280;48016;50.284;18.860;2023-01-20T14:11:16;97900.25;;;-0.06;81.17
62057;BME280;48016;50.284;18.860;2023-01-20T14:14:03;97899.13;;;-0.08;81.01
62057;BME280;48016;50.284;18.860;2023-01-20T14:16:55;97893.30;;;-0.08;81.06
62057;BME280;48016;50.284;18.860;2023-01-20T14:19:35;97889.09;;;-0.11;81.05
62057;BME280;48016;50.284;18.860;2023-01-20T14:22:22;97891.01;;;-0.13;80.99
62057;BME280;48016;50.284;18.860;2023-01-20T14:24:52;97891.30;;;-0.17;81.02
62057;BME280;48016;50.284;18.860;2023-01-20T14:29:51;97893.09;;;-0.14;81.15
62057;BME280;48016;50.284;18.860;2023-01-20T14:34:51;97889.80;;;-0.09;81.13
62057;BME280;48016;50.284;18.860;2023-01-20T14:37:34;97891.06;;;-0.08;81.20
62057;BME280;48016;50.284;18.860;2023-01-20T14:42:36;97893.59;;;-0.26;81.11
62057;BME280;48016;50.284;18.860;2023-01-20T14:45:21;97893.21;;;-0.33;81.31
62057;BME280;48016;50.284;18.860;2023-01-20T14:47:59;97892.58;;;-0.38;81.50
62057;BME280;48016;50.284;18.860;2023-01-20T14:50:28;97893.50;;;-0.41;81.19
62057;BME280;48016;50.284;18.860;2023-01-20T14:52:57;97894.93;;;-0.52;81.05
62057;BME280;48016;50.284;18.860;2023-01-20T14:55:35;97898.34;;;-0.61;81.20
62057;BME280;48016;50.284;18.860;2023-01-20T14:58:11;97894.27;;;-0.65;81.40
62057;BME280;48016;50.284;18.860;2023-01-20T15:00:47;97897.13;;;-0.65;81.63
62057;BME280;48016;50.284;18.860;2023-01-20T15:03:24;97903.28;;;-0.68;81.73
62057;BME280;48016;50.284;18.860;2023-01-20T15:11:21;97919.19;;;-0.85;81.53
62057;BME280;48016;50.284;18.860;2023-01-20T15:21:51;97932.91;;;-1.03;81.87
62057;BME280;48016;50.284;18.860;2023-01-20T15:24:32;97935.61;;;-1.03;81.89
62057;BME280;48016;50.284;18.860;2023-01-20T15:27:23;97933.30;;;-1.01;82.07
62057;BME280;48016;50.284;18.860;2023-01-20T15:32:40;97929.92;;;-1.00;82.20
62057;BME280;48016;50.284;18.860;2023-01-20T15:35:10;97925.86;;;-1.03;82.17
62057;BME280;48016;50.284;18.860;2023-01-20T15:37:42;97923.45;;;-1.06;82.30
62057;BME280;48016;50.284;18.860;2023-01-20T15:40:33;97920.40;;;-1.05;82.11
62057;BME280;48016;50.284;18.860;2023-01-20T15:43:01;97921.95;;;-1.05;82.23
62057;BME280;48016;50.284;18.860;2023-01-20T15:45:28;97924.95;;;-1.08;82.25
62057;BME280;48016;50.284;18.860;2023-01-20T15:47:55;97929.71;;;-1.10;82.17